Terminal Aerodrome Forecast
Issued by NWS

Home | Current Version | Previous Version | Text Only | Print | Product List | Glossary On
Versions: 1 2 3 4 5 6 7 8 9 10 11 12 13
855
FTUS46 KLOX 092325
TAFSBA
TAF
KSBA 092325Z 1000/1024 26008KT P6SM SCT250
     FM100300 VRB03KT P6SM SCT250
     FM102100 25008KT P6SM SKC=

USA.gov is the U.S. government's official web portal to all federal, state and local government web resources and services.